sensor_id;sensor_type;location;lat;lon;timestamp;P1;durP1;ratioP1;P2;durP2;ratioP2
34836;SDS011;21053;50.848;4.652;2023-03-04T00:02:24;26.75;;;13.20;;
34836;SDS011;21053;50.848;4.652;2023-03-04T00:04:53;24.38;;;12.07;;
34836;SDS011;21053;50.848;4.652;2023-03-04T00:07:21;30.40;;;11.93;;
34836;SDS011;21053;50.848;4.652;2023-03-04T00:09:47;32.45;;;11.55;;
34836;SDS011;21053;50.848;4.652;2023-03-04T00:12:15;23.40;;;11.85;;
34836;SDS011;21053;50.848;4.652;2023-03-04T00:14:44;29.05;;;11.57;;
34836;SDS011;21053;50.848;4.652;2023-03-04T00:19:41;30.70;;;12.13;;
34836;SDS011;21053;50.848;4.652;2023-03-04T00:22:08;25.95;;;12.00;;
34836;SDS011;21053;50.848;4.652;2023-03-04T00:24:37;36.60;;;11.65;;
34836;SDS011;21053;50.848;4.652;2023-03-04T00:27:03;37.65;;;11.43;;
34836;SDS011;21053;50.848;4.652;2023-03-04T00:29:31;27.63;;;10.25;;
34836;SDS011;21053;50.848;4.652;2023-03-04T00:32:03;33.08;;;11.30;;
34836;SDS011;21053;50.848;4.652;2023-03-04T00:34:30;41.90;;;12.30;;
34836;SDS011;21053;50.848;4.652;2023-03-04T00:38:22;29.05;;;9.57;;
34836;SDS011;21053;50.848;4.652;2023-03-04T00:40:51;33.90;;;9.52;;
34836;SDS011;21053;50.848;4.652;2023-03-04T00:43:20;26.42;;;9.05;;
34836;SDS011;21053;50.848;4.652;2023-03-04T00:45:50;30.05;;;10.73;;
34836;SDS011;21053;50.848;4.652;2023-03-04T00:48:16;37.97;;;10.85;;
34836;SDS011;21053;50.848;4.652;2023-03-04T00:50:42;34.28;;;11.15;;
34836;SDS011;21053;50.848;4.652;2023-03-04T00:55:38;29.55;;;9.80;;
34836;SDS011;21053;50.848;4.652;2023-03-04T00:58:04;25.50;;;9.13;;
34836;SDS011;21053;50.848;4.652;2023-03-04T01:00:33;41.28;;;9.80;;
34836;SDS011;21053;50.848;4.652;2023-03-04T01:02:59;30.23;;;10.02;;
34836;SDS011;21053;50.848;4.652;2023-03-04T01:05:28;40.55;;;10.05;;
34836;SDS011;21053;50.848;4.652;2023-03-04T01:07:55;21.83;;;8.90;;
34836;SDS011;21053;50.848;4.652;2023-03-04T01:12:52;31.60;;;8.52;;
34836;SDS011;21053;50.848;4.652;2023-03-04T01:15:24;37.42;;;8.73;;
34836;SDS011;21053;50.848;4.652;2023-03-04T01:17:50;28.15;;;8.68;;
34836;SDS011;21053;50.848;4.652;2023-03-04T01:20:18;29.70;;;8.02;;
34836;SDS011;21053;50.848;4.652;2023-03-04T01:22:47;28.95;;;9.00;;
34836;SDS011;21053;50.848;4.652;2023-03-04T01:25:14;38.33;;;9.07;;
34836;SDS011;21053;50.848;4.652;2023-03-04T01:27:39;28.00;;;8.38;;
34836;SDS011;21053;50.848;4.652;2023-03-04T01:30:06;28.38;;;8.02;;
34836;SDS011;21053;50.848;4.652;2023-03-04T01:32:35;32.88;;;8.82;;
34836;SDS011;21053;50.848;4.652;2023-03-04T01:35:01;32.13;;;8.77;;
34836;SDS011;21053;50.848;4.652;2023-03-04T01:37:30;35.08;;;8.65;;
34836;SDS011;21053;50.848;4.652;2023-03-04T01:39:57;25.75;;;9.75;;
34836;SDS011;21053;50.848;4.652;2023-03-04T01:42:26;28.92;;;8.32;;
34836;SDS011;21053;50.848;4.652;2023-03-04T01:47:27;28.65;;;8.50;;
34836;SDS011;21053;50.848;4.652;2023-03-04T01:52:26;29.23;;;8.35;;
34836;SDS011;21053;50.848;4.652;2023-03-04T01:54:53;35.72;;;8.93;;
34836;SDS011;21053;50.848;4.652;2023-03-04T01:57:20;28.80;;;8.55;;
34836;SDS011;21053;50.848;4.652;2023-03-04T02:02:41;38.08;;;8.90;;
34836;SDS011;21053;50.848;4.652;2023-03-04T02:05:07;25.13;;;8.13;;
34836;SDS011;21053;50.848;4.652;2023-03-04T02:10:03;30.08;;;8.18;;
34836;SDS011;21053;50.848;4.652;2023-03-04T02:12:32;32.20;;;8.35;;
34836;SDS011;21053;50.848;4.652;2023-03-04T02:14:58;34.60;;;8.57;;
34836;SDS011;21053;50.848;4.652;2023-03-04T02:17:27;32.35;;;9.57;;
34836;SDS011;21053;50.848;4.652;2023-03-04T02:23:15;32.90;;;8.18;;
34836;SDS011;21053;50.848;4.652;2023-03-04T02:28:37;32.55;;;7.28;;
34836;SDS011;21053;50.848;4.652;2023-03-04T02:31:13;28.23;;;7.07;;
34836;SDS011;21053;50.848;4.652;2023-03-04T02:33:51;19.52;;;6.57;;
34836;SDS011;21053;50.848;4.652;2023-03-04T02:36:18;33.08;;;6.60;;
34836;SDS011;21053;50.848;4.652;2023-03-04T02:38:48;27.63;;;6.55;;
34836;SDS011;21053;50.848;4.652;2023-03-04T02:41:23;32.35;;;6.18;;
34836;SDS011;21053;50.848;4.652;2023-03-04T02:43:53;26.20;;;6.85;;
34836;SDS011;21053;50.848;4.652;2023-03-04T02:46:23;35.05;;;6.57;;
34836;SDS011;21053;50.848;4.652;2023-03-04T02:48:52;41.17;;;6.75;;
34836;SDS011;21053;50.848;4.652;2023-03-04T02:51:19;28.52;;;6.18;;
34836;SDS011;21053;50.848;4.652;2023-03-04T02:53:47;25.17;;;5.57;;
34836;SDS011;21053;50.848;4.652;2023-03-04T02:58:43;27.70;;;5.65;;
34836;SDS011;21053;50.848;4.652;2023-03-04T03:01:09;25.15;;;6.03;;
34836;SDS011;21053;50.848;4.652;2023-03-04T03:03:36;30.65;;;6.32;;
34836;SDS011;21053;50.848;4.652;2023-03-04T03:06:02;30.77;;;6.25;;
34836;SDS011;21053;50.848;4.652;2023-03-04T03:08:28;27.55;;;6.05;;
34836;SDS011;21053;50.848;4.652;2023-03-04T03:13:25;33.50;;;6.10;;
34836;SDS011;21053;50.848;4.652;2023-03-04T03:15:57;22.67;;;5.45;;
34836;SDS011;21053;50.848;4.652;2023-03-04T03:20:53;28.60;;;6.47;;
34836;SDS011;21053;50.848;4.652;2023-03-04T03:23:22;19.88;;;6.07;;
34836;SDS011;21053;50.848;4.652;2023-03-04T03:25:48;22.13;;;5.57;;
34836;SDS011;21053;50.848;4.652;2023-03-04T03:33:14;25.60;;;6.03;;
34836;SDS011;21053;50.848;4.652;2023-03-04T03:35:41;30.90;;;6.50;;
34836;SDS011;21053;50.848;4.652;2023-03-04T03:38:06;26.40;;;6.82;;
34836;SDS011;21053;50.848;4.652;2023-03-04T03:40:32;34.38;;;6.53;;
34836;SDS011;21053;50.848;4.652;2023-03-04T03:43:01;22.60;;;6.72;;
34836;SDS011;21053;50.848;4.652;2023-03-04T03:47:55;33.58;;;6.32;;
34836;SDS011;21053;50.848;4.652;2023-03-04T03:50:24;36.80;;;6.88;;
34836;SDS011;21053;50.848;4.652;2023-03-04T03:52:51;28.33;;;6.90;;
34836;SDS011;21053;50.848;4.652;2023-03-04T03:55:17;29.38;;;6.05;;
34836;SDS011;21053;50.848;4.652;2023-03-04T03:57:42;31.55;;;6.75;;
34836;SDS011;21053;50.848;4.652;2023-03-04T04:00:09;39.33;;;6.95;;
34836;SDS011;21053;50.848;4.652;2023-03-04T04:02:37;29.13;;;6.75;;
34836;SDS011;21053;50.848;4.652;2023-03-04T04:05:04;38.10;;;7.03;;
34836;SDS011;21053;50.848;4.652;2023-03-04T04:07:32;25.67;;;7.10;;
34836;SDS011;21053;50.848;4.652;2023-03-04T04:09:59;21.75;;;6.53;;
34836;SDS011;21053;50.848;4.652;2023-03-04T04:12:27;24.75;;;6.63;;
34836;SDS011;21053;50.848;4.652;2023-03-04T04:14:55;38.35;;;7.03;;
34836;SDS011;21053;50.848;4.652;2023-03-04T04:17:24;33.67;;;7.07;;
34836;SDS011;21053;50.848;4.652;2023-03-04T04:19:51;35.58;;;7.38;;
34836;SDS011;21053;50.848;4.652;2023-03-04T04:24:47;31.35;;;6.80;;
34836;SDS011;21053;50.848;4.652;2023-03-04T04:29:45;35.90;;;7.28;;
34836;SDS011;21053;50.848;4.652;2023-03-04T04:32:13;35.70;;;7.68;;
34836;SDS011;21053;50.848;4.652;2023-03-04T04:34:39;32.17;;;6.32;;
34836;SDS011;21053;50.848;4.652;2023-03-04T04:37:05;40.15;;;7.25;;
34836;SDS011;21053;50.848;4.652;2023-03-04T04:39:34;37.95;;;7.05;;
34836;SDS011;21053;50.848;4.652;2023-03-04T04:42:00;25.45;;;6.53;;
34836;SDS011;21053;50.848;4.652;2023-03-04T04:44:29;32.35;;;6.43;;
34836;SDS011;21053;50.848;4.652;2023-03-04T04:46:58;24.95;;;5.63;;
34836;SDS011;21053;50.848;4.652;2023-03-04T04:49:25;26.20;;;5.82;;
34836;SDS011;21053;50.848;4.652;2023-03-04T04:51:52;24.85;;;5.43;;
34836;SDS011;21053;50.848;4.652;2023-03-04T04:54:21;29.20;;;5.53;;
34836;SDS011;21053;50.848;4.652;2023-03-04T04:56:48;25.48;;;5.65;;
34836;SDS011;21053;50.848;4.652;2023-03-04T04:59:15;26.55;;;4.95;;
34836;SDS011;21053;50.848;4.652;2023-03-04T05:01:43;26.20;;;5.13;;
34836;SDS011;21053;50.848;4.652;2023-03-04T05:04:32;22.45;;;5.72;;
34836;SDS011;21053;50.848;4.652;2023-03-04T05:06:57;29.92;;;5.97;;
34836;SDS011;21053;50.848;4.652;2023-03-04T05:09:24;30.52;;;5.57;;
34836;SDS011;21053;50.848;4.652;2023-03-04T05:11:53;36.95;;;6.35;;
34836;SDS011;21053;50.848;4.652;2023-03-04T05:14:20;29.35;;;5.55;;
34836;SDS011;21053;50.848;4.652;2023-03-04T05:16:47;27.55;;;5.18;;
34836;SDS011;21053;50.848;4.652;2023-03-04T05:21:45;25.30;;;5.28;;
34836;SDS011;21053;50.848;4.652;2023-03-04T05:24:10;24.58;;;5.00;;
34836;SDS011;21053;50.848;4.652;2023-03-04T05:26:39;25.17;;;5.03;;
34836;SDS011;21053;50.848;4.652;2023-03-04T05:31:36;27.73;;;5.43;;
34836;SDS011;21053;50.848;4.652;2023-03-04T05:34:04;30.10;;;6.15;;
34836;SDS011;21053;50.848;4.652;2023-03-04T05:36:33;24.10;;;5.22;;
34836;SDS011;21053;50.848;4.652;2023-03-04T05:41:30;30.75;;;5.70;;
34836;SDS011;21053;50.848;4.652;2023-03-04T05:43:57;25.23;;;5.35;;
34836;SDS011;21053;50.848;4.652;2023-03-04T05:46:26;21.05;;;5.78;;
34836;SDS011;21053;50.848;4.652;2023-03-04T05:48:55;18.77;;;5.43;;
34836;SDS011;21053;50.848;4.652;2023-03-04T05:51:22;20.50;;;5.72;;
34836;SDS011;21053;50.848;4.652;2023-03-04T05:53:49;21.58;;;5.55;;
34836;SDS011;21053;50.848;4.652;2023-03-04T05:56:21;26.15;;;5.82;;
34836;SDS011;21053;50.848;4.652;2023-03-04T05:58:49;21.92;;;7.15;;
34836;SDS011;21053;50.848;4.652;2023-03-04T06:01:16;22.30;;;6.53;;
34836;SDS011;21053;50.848;4.652;2023-03-04T06:03:42;33.03;;;7.10;;
34836;SDS011;21053;50.848;4.652;2023-03-04T06:06:09;35.65;;;7.18;;
34836;SDS011;21053;50.848;4.652;2023-03-04T06:08:37;26.95;;;6.25;;
34836;SDS011;21053;50.848;4.652;2023-03-04T06:11:09;28.38;;;7.20;;
34836;SDS011;21053;50.848;4.652;2023-03-04T06:13:38;26.23;;;6.85;;
34836;SDS011;21053;50.848;4.652;2023-03-04T06:18:48;25.88;;;7.28;;
34836;SDS011;21053;50.848;4.652;2023-03-04T06:23:43;27.52;;;6.82;;
34836;SDS011;21053;50.848;4.652;2023-03-04T06:26:16;19.85;;;6.85;;
34836;SDS011;21053;50.848;4.652;2023-03-04T06:28:44;35.08;;;7.82;;
34836;SDS011;21053;50.848;4.652;2023-03-04T06:31:13;19.40;;;6.40;;
34836;SDS011;21053;50.848;4.652;2023-03-04T06:33:42;28.98;;;7.47;;
34836;SDS011;21053;50.848;4.652;2023-03-04T06:36:08;35.85;;;7.07;;
34836;SDS011;21053;50.848;4.652;2023-03-04T06:38:37;29.75;;;7.72;;
34836;SDS011;21053;50.848;4.652;2023-03-04T06:41:10;35.45;;;8.07;;
34836;SDS011;21053;50.848;4.652;2023-03-04T06:43:38;30.73;;;8.25;;
34836;SDS011;21053;50.848;4.652;2023-03-04T06:46:05;27.60;;;8.15;;
34836;SDS011;21053;50.848;4.652;2023-03-04T06:51:07;30.02;;;10.48;;
34836;SDS011;21053;50.848;4.652;2023-03-04T06:53:36;33.72;;;11.00;;
34836;SDS011;21053;50.848;4.652;2023-03-04T06:58:33;35.67;;;9.77;;
34836;SDS011;21053;50.848;4.652;2023-03-04T07:08:30;20.58;;;7.72;;
34836;SDS011;21053;50.848;4.652;2023-03-04T07:13:27;30.98;;;7.20;;
34836;SDS011;21053;50.848;4.652;2023-03-04T07:18:23;33.08;;;6.93;;
34836;SDS011;21053;50.848;4.652;2023-03-04T07:20:52;24.92;;;7.78;;
34836;SDS011;21053;50.848;4.652;2023-03-04T07:23:21;18.50;;;5.78;;
34836;SDS011;21053;50.848;4.652;2023-03-04T07:25:49;23.48;;;5.00;;
34836;SDS011;21053;50.848;4.652;2023-03-04T07:28:16;14.85;;;4.25;;
34836;SDS011;21053;50.848;4.652;2023-03-04T07:30:45;26.35;;;5.15;;
34836;SDS011;21053;50.848;4.652;2023-03-04T07:33:12;24.00;;;4.95;;
34836;SDS011;21053;50.848;4.652;2023-03-04T07:35:39;16.42;;;4.47;;
34836;SDS011;21053;50.848;4.652;2023-03-04T07:38:08;19.50;;;4.80;;
34836;SDS011;21053;50.848;4.652;2023-03-04T07:40:35;26.95;;;4.53;;
34836;SDS011;21053;50.848;4.652;2023-03-04T07:43:02;26.83;;;5.60;;
34836;SDS011;21053;50.848;4.652;2023-03-04T07:45:31;21.15;;;5.03;;
34836;SDS011;21053;50.848;4.652;2023-03-04T07:50:28;22.88;;;4.72;;
34836;SDS011;21053;50.848;4.652;2023-03-04T07:52:55;34.60;;;4.53;;
34836;SDS011;21053;50.848;4.652;2023-03-04T07:55:26;15.38;;;3.90;;
34836;SDS011;21053;50.848;4.652;2023-03-04T07:57:57;16.08;;;4.28;;
34836;SDS011;21053;50.848;4.652;2023-03-04T08:00:29;17.08;;;3.80;;
34836;SDS011;21053;50.848;4.652;2023-03-04T08:02:55;18.08;;;3.40;;
34836;SDS011;21053;50.848;4.652;2023-03-04T08:07:51;10.98;;;3.53;;
34836;SDS011;21053;50.848;4.652;2023-03-04T08:12:47;22.25;;;4.47;;
34836;SDS011;21053;50.848;4.652;2023-03-04T08:15:16;13.63;;;3.63;;
34836;SDS011;21053;50.848;4.652;2023-03-04T08:17:42;29.85;;;3.88;;
34836;SDS011;21053;50.848;4.652;2023-03-04T08:20:14;15.93;;;3.65;;
34836;SDS011;21053;50.848;4.652;2023-03-04T08:22:42;29.95;;;4.75;;
34836;SDS011;21053;50.848;4.652;2023-03-04T08:25:09;19.63;;;4.18;;
34836;SDS011;21053;50.848;4.652;2023-03-04T08:27:38;20.70;;;4.00;;
34836;SDS011;21053;50.848;4.652;2023-03-04T08:30:04;25.48;;;4.25;;
34836;SDS011;21053;50.848;4.652;2023-03-04T08:35:11;19.95;;;4.22;;
34836;SDS011;21053;50.848;4.652;2023-03-04T08:37:37;17.40;;;3.67;;
34836;SDS011;21053;50.848;4.652;2023-03-04T08:42:35;25.52;;;4.03;;
34836;SDS011;21053;50.848;4.652;2023-03-04T08:47:30;16.10;;;3.60;;
34836;SDS011;21053;50.848;4.652;2023-03-04T08:49:56;15.77;;;4.18;;
34836;SDS011;21053;50.848;4.652;2023-03-04T08:52:27;12.68;;;3.53;;
34836;SDS011;21053;50.848;4.652;2023-03-04T08:54:54;14.45;;;3.58;;
34836;SDS011;21053;50.848;4.652;2023-03-04T08:57:23;19.73;;;3.72;;
34836;SDS011;21053;50.848;4.652;2023-03-04T09:02:21;15.25;;;3.00;;
34836;SDS011;21053;50.848;4.652;2023-03-04T09:04:48;8.50;;;2.63;;
34836;SDS011;21053;50.848;4.652;2023-03-04T09:07:14;11.23;;;2.60;;
34836;SDS011;21053;50.848;4.652;2023-03-04T09:09:41;12.05;;;3.25;;
34836;SDS011;21053;50.848;4.652;2023-03-04T09:12:07;9.52;;;2.40;;
34836;SDS011;21053;50.848;4.652;2023-03-04T09:14:38;7.90;;;2.08;;
34836;SDS011;21053;50.848;4.652;2023-03-04T09:17:06;19.83;;;2.53;;
34836;SDS011;21053;50.848;4.652;2023-03-04T09:19:31;14.52;;;2.60;;
34836;SDS011;21053;50.848;4.652;2023-03-04T09:21:58;15.15;;;2.75;;
34836;SDS011;21053;50.848;4.652;2023-03-04T09:24:24;10.50;;;2.55;;
34836;SDS011;21053;50.848;4.652;2023-03-04T09:26:52;14.35;;;2.88;;
34836;SDS011;21053;50.848;4.652;2023-03-04T09:29:20;11.90;;;3.10;;
34836;SDS011;21053;50.848;4.652;2023-03-04T09:31:46;63.67;;;5.25;;
34836;SDS011;21053;50.848;4.652;2023-03-04T09:34:13;12.43;;;3.13;;
34836;SDS011;21053;50.848;4.652;2023-03-04T09:36:42;11.05;;;2.53;;
34836;SDS011;21053;50.848;4.652;2023-03-04T09:41:43;10.55;;;2.92;;
34836;SDS011;21053;50.848;4.652;2023-03-04T09:46:48;18.20;;;3.92;;
34836;SDS011;21053;50.848;4.652;2023-03-04T09:49:17;15.30;;;3.70;;
34836;SDS011;21053;50.848;4.652;2023-03-04T09:57:37;17.95;;;2.60;;
34836;SDS011;21053;50.848;4.652;2023-03-04T10:00:48;12.50;;;1.90;;
34836;SDS011;21053;50.848;4.652;2023-03-04T10:03:19;8.57;;;2.00;;
34836;SDS011;21053;50.848;4.652;2023-03-04T10:11:17;8.73;;;2.28;;
34836;SDS011;21053;50.848;4.652;2023-03-04T10:16:48;10.60;;;2.60;;
34836;SDS011;21053;50.848;4.652;2023-03-04T10:20:00;9.88;;;1.80;;
34836;SDS011;21053;50.848;4.652;2023-03-04T10:22:49;6.05;;;1.80;;
34836;SDS011;21053;50.848;4.652;2023-03-04T10:25:23;10.05;;;1.98;;
34836;SDS011;21053;50.848;4.652;2023-03-04T10:28:10;13.52;;;2.45;;
34836;SDS011;21053;50.848;4.652;2023-03-04T10:33:27;6.75;;;2.22;;
34836;SDS011;21053;50.848;4.652;2023-03-04T10:36:02;8.07;;;2.17;;
34836;SDS011;21053;50.848;4.652;2023-03-04T10:38:38;13.05;;;2.83;;
34836;SDS011;21053;50.848;4.652;2023-03-04T10:41:22;9.82;;;2.55;;
34836;SDS011;21053;50.848;4.652;2023-03-04T10:46:39;15.32;;;3.17;;
34836;SDS011;21053;50.848;4.652;2023-03-04T10:49:10;15.65;;;3.80;;
34836;SDS011;21053;50.848;4.652;2023-03-04T10:54:46;9.50;;;2.85;;
34836;SDS011;21053;50.848;4.652;2023-03-04T10:57:34;11.05;;;2.83;;
34836;SDS011;21053;50.848;4.652;2023-03-04T11:02:51;11.93;;;3.13;;
34836;SDS011;21053;50.848;4.652;2023-03-04T11:05:19;23.05;;;4.28;;
34836;SDS011;21053;50.848;4.652;2023-03-04T11:07:50;13.57;;;4.20;;
34836;SDS011;21053;50.848;4.652;2023-03-04T11:10:37;12.75;;;3.38;;
34836;SDS011;21053;50.848;4.652;2023-03-04T11:13:07;14.07;;;4.35;;
34836;SDS011;21053;50.848;4.652;2023-03-04T11:21:11;10.02;;;3.67;;
34836;SDS011;21053;50.848;4.652;2023-03-04T11:23:59;13.60;;;3.85;;
34836;SDS011;21053;50.848;4.652;2023-03-04T11:26:52;14.95;;;3.63;;
34836;SDS011;21053;50.848;4.652;2023-03-04T11:32:16;10.02;;;3.40;;
34836;SDS011;21053;50.848;4.652;2023-03-04T11:38:03;11.63;;;3.50;;
34836;SDS011;21053;50.848;4.652;2023-03-04T11:40:49;9.38;;;3.70;;
34836;SDS011;21053;50.848;4.652;2023-03-04T11:43:44;8.90;;;3.50;;
34836;SDS011;21053;50.848;4.652;2023-03-04T11:55:31;9.13;;;2.58;;
34836;SDS011;21053;50.848;4.652;2023-03-04T12:03:41;16.75;;;7.43;;
34836;SDS011;21053;50.848;4.652;2023-03-04T12:06:49;25.20;;;10.60;;
34836;SDS011;21053;50.848;4.652;2023-03-04T12:24:09;11.05;;;3.58;;
34836;SDS011;21053;50.848;4.652;2023-03-04T12:36:00;12.90;;;4.28;;
34836;SDS011;21053;50.848;4.652;2023-03-04T12:38:46;15.65;;;5.35;;
34836;SDS011;21053;50.848;4.652;2023-03-04T12:41:38;12.70;;;4.75;;
34836;SDS011;21053;50.848;4.652;2023-03-04T12:47:16;15.02;;;4.28;;
34836;SDS011;21053;50.848;4.652;2023-03-04T12:53:07;26.35;;;8.57;;
34836;SDS011;21053;50.848;4.652;2023-03-04T12:55:41;16.60;;;4.85;;
34836;SDS011;21053;50.848;4.652;2023-03-04T12:58:16;12.13;;;4.40;;
34836;SDS011;21053;50.848;4.652;2023-03-04T13:11:54;20.85;;;4.68;;
34836;SDS011;21053;50.848;4.652;2023-03-04T13:14:33;14.63;;;5.88;;
34836;SDS011;21053;50.848;4.652;2023-03-04T13:17:35;16.75;;;5.00;;
34836;SDS011;21053;50.848;4.652;2023-03-04T13:28:25;19.38;;;5.78;;
34836;SDS011;21053;50.848;4.652;2023-03-04T13:31:06;13.18;;;6.20;;
34836;SDS011;21053;50.848;4.652;2023-03-04T13:33:48;17.45;;;6.57;;
34836;SDS011;21053;50.848;4.652;2023-03-04T13:36:50;24.42;;;6.18;;
34836;SDS011;21053;50.848;4.652;2023-03-04T13:39:22;22.38;;;6.60;;
34836;SDS011;21053;50.848;4.652;2023-03-04T13:41:51;20.85;;;5.25;;
34836;SDS011;21053;50.848;4.652;2023-03-04T13:44:55;16.40;;;5.25;;
34836;SDS011;21053;50.848;4.652;2023-03-04T13:50:21;17.80;;;8.57;;
34836;SDS011;21053;50.848;4.652;2023-03-04T13:52:49;7.93;;;4.93;;
34836;SDS011;21053;50.848;4.652;2023-03-04T13:58:16;15.13;;;5.88;;
34836;SDS011;21053;50.848;4.652;2023-03-04T14:00:50;12.43;;;4.90;;
34836;SDS011;21053;50.848;4.652;2023-03-04T14:08:48;11.00;;;4.63;;
34836;SDS011;21053;50.848;4.652;2023-03-04T14:13:53;15.93;;;5.57;;
34836;SDS011;21053;50.848;4.652;2023-03-04T14:16:25;11.23;;;4.97;;
34836;SDS011;21053;50.848;4.652;2023-03-04T14:19:00;15.20;;;5.13;;
34836;SDS011;21053;50.848;4.652;2023-03-04T14:21:28;15.57;;;5.57;;
34836;SDS011;21053;50.848;4.652;2023-03-04T14:24:03;9.38;;;5.00;;
34836;SDS011;21053;50.848;4.652;2023-03-04T14:26:31;18.55;;;6.18;;
34836;SDS011;21053;50.848;4.652;2023-03-04T14:29:00;17.85;;;6.18;;
34836;SDS011;21053;50.848;4.652;2023-03-04T14:33:59;8.25;;;6.22;;
34836;SDS011;21053;50.848;4.652;2023-03-04T14:36:58;15.65;;;5.28;;
34836;SDS011;21053;50.848;4.652;2023-03-04T14:41:21;11.45;;;5.25;;
34836;SDS011;21053;50.848;4.652;2023-03-04T14:46:55;13.52;;;5.40;;
34836;SDS011;21053;50.848;4.652;2023-03-04T14:49:26;10.65;;;5.15;;
34836;SDS011;21053;50.848;4.652;2023-03-04T14:51:53;8.50;;;5.38;;
34836;SDS011;21053;50.848;4.652;2023-03-04T14:57:00;11.18;;;4.93;;
34836;SDS011;21053;50.848;4.652;2023-03-04T14:59:49;12.82;;;5.30;;
34836;SDS011;21053;50.848;4.652;2023-03-04T15:05:09;5.93;;;4.22;;
34836;SDS011;21053;50.848;4.652;2023-03-04T15:07:41;15.57;;;4.45;;
34836;SDS011;21053;50.848;4.652;2023-03-04T15:10:18;7.15;;;3.60;;
34836;SDS011;21053;50.848;4.652;2023-03-04T15:15:35;7.95;;;3.72;;
34836;SDS011;21053;50.848;4.652;2023-03-04T15:18:25;6.30;;;3.60;;
34836;SDS011;21053;50.848;4.652;2023-03-04T15:20:56;7.72;;;3.22;;
34836;SDS011;21053;50.848;4.652;2023-03-04T15:23:25;4.63;;;3.50;;
34836;SDS011;21053;50.848;4.652;2023-03-04T15:25:59;6.82;;;3.45;;
34836;SDS011;21053;50.848;4.652;2023-03-04T15:28:36;10.23;;;3.95;;
34836;SDS011;21053;50.848;4.652;2023-03-04T15:31:12;8.98;;;4.97;;
34836;SDS011;21053;50.848;4.652;2023-03-04T15:33:42;8.60;;;3.30;;
34836;SDS011;21053;50.848;4.652;2023-03-04T15:36:13;8.43;;;3.58;;
34836;SDS011;21053;50.848;4.652;2023-03-04T15:38:40;12.45;;;3.53;;
34836;SDS011;21053;50.848;4.652;2023-03-04T15:41:11;15.35;;;4.53;;
34836;SDS011;21053;50.848;4.652;2023-03-04T15:43:44;9.77;;;4.13;;
34836;SDS011;21053;50.848;4.652;2023-03-04T15:46:19;12.45;;;5.13;;
34836;SDS011;21053;50.848;4.652;2023-03-04T15:48:47;13.15;;;4.90;;
34836;SDS011;21053;50.848;4.652;2023-03-04T15:51:16;13.75;;;5.18;;
34836;SDS011;21053;50.848;4.652;2023-03-04T15:56:40;5.32;;;3.22;;
34836;SDS011;21053;50.848;4.652;2023-03-04T15:59:14;11.35;;;4.97;;
34836;SDS011;21053;50.848;4.652;2023-03-04T16:01:43;9.38;;;3.58;;
34836;SDS011;21053;50.848;4.652;2023-03-04T16:04:13;8.30;;;3.47;;
34836;SDS011;21053;50.848;4.652;2023-03-04T16:06:42;12.95;;;4.25;;
34836;SDS011;21053;50.848;4.652;2023-03-04T16:09:12;8.07;;;4.00;;
34836;SDS011;21053;50.848;4.652;2023-03-04T16:11:42;10.13;;;4.15;;
34836;SDS011;21053;50.848;4.652;2023-03-04T16:14:14;6.85;;;4.40;;
34836;SDS011;21053;50.848;4.652;2023-03-04T16:16:46;10.95;;;5.03;;
34836;SDS011;21053;50.848;4.652;2023-03-04T16:19:15;5.63;;;3.33;;
34836;SDS011;21053;50.848;4.652;2023-03-04T16:24:22;11.25;;;4.72;;
34836;SDS011;21053;50.848;4.652;2023-03-04T16:26:48;11.25;;;3.75;;
34836;SDS011;21053;50.848;4.652;2023-03-04T16:31:42;10.40;;;3.92;;
34836;SDS011;21053;50.848;4.652;2023-03-04T16:34:09;9.20;;;3.67;;
34836;SDS011;21053;50.848;4.652;2023-03-04T16:36:38;15.88;;;4.35;;
34836;SDS011;21053;50.848;4.652;2023-03-04T16:39:05;11.15;;;3.80;;
34836;SDS011;21053;50.848;4.652;2023-03-04T16:41:34;11.25;;;3.38;;
34836;SDS011;21053;50.848;4.652;2023-03-04T16:44:03;10.48;;;2.90;;
34836;SDS011;21053;50.848;4.652;2023-03-04T16:46:31;7.80;;;3.30;;
34836;SDS011;21053;50.848;4.652;2023-03-04T16:48:57;11.25;;;3.28;;
34836;SDS011;21053;50.848;4.652;2023-03-04T16:53:56;12.13;;;4.10;;
34836;SDS011;21053;50.848;4.652;2023-03-04T16:56:25;14.07;;;3.40;;
34836;SDS011;21053;50.848;4.652;2023-03-04T17:01:23;9.77;;;3.25;;
34836;SDS011;21053;50.848;4.652;2023-03-04T17:06:23;5.88;;;3.13;;
34836;SDS011;21053;50.848;4.652;2023-03-04T17:08:51;7.72;;;2.80;;
34836;SDS011;21053;50.848;4.652;2023-03-04T17:13:48;11.75;;;3.40;;
34836;SDS011;21053;50.848;4.652;2023-03-04T17:16:15;16.15;;;5.05;;
34836;SDS011;21053;50.848;4.652;2023-03-04T17:21:12;10.50;;;4.97;;
34836;SDS011;21053;50.848;4.652;2023-03-04T17:23:45;9.93;;;3.05;;
34836;SDS011;21053;50.848;4.652;2023-03-04T17:28:43;10.18;;;3.92;;
34836;SDS011;21053;50.848;4.652;2023-03-04T17:31:13;13.57;;;4.07;;
34836;SDS011;21053;50.848;4.652;2023-03-04T17:33:44;15.48;;;4.10;;
34836;SDS011;21053;50.848;4.652;2023-03-04T17:36:13;10.55;;;4.25;;
34836;SDS011;21053;50.848;4.652;2023-03-04T17:38:43;18.48;;;8.70;;
34836;SDS011;21053;50.848;4.652;2023-03-04T17:41:11;13.45;;;4.30;;
34836;SDS011;21053;50.848;4.652;2023-03-04T17:43:43;11.48;;;4.57;;
34836;SDS011;21053;50.848;4.652;2023-03-04T17:46:13;11.40;;;4.28;;
34836;SDS011;21053;50.848;4.652;2023-03-04T17:48:40;13.20;;;4.65;;
34836;SDS011;21053;50.848;4.652;2023-03-04T17:51:09;10.85;;;4.07;;
34836;SDS011;21053;50.848;4.652;2023-03-04T17:53:36;12.90;;;4.93;;
34836;SDS011;21053;50.848;4.652;2023-03-04T17:56:05;7.82;;;4.13;;
34836;SDS011;21053;50.848;4.652;2023-03-04T18:01:06;10.07;;;4.32;;
34836;SDS011;21053;50.848;4.652;2023-03-04T18:06:11;17.95;;;6.32;;
34836;SDS011;21053;50.848;4.652;2023-03-04T18:08:37;15.02;;;8.63;;
34836;SDS011;21053;50.848;4.652;2023-03-04T18:11:02;8.93;;;4.28;;
34836;SDS011;21053;50.848;4.652;2023-03-04T18:13:30;18.63;;;7.82;;
34836;SDS011;21053;50.848;4.652;2023-03-04T18:15:58;27.88;;;13.18;;
34836;SDS011;21053;50.848;4.652;2023-03-04T18:18:25;11.13;;;4.80;;
34836;SDS011;21053;50.848;4.652;2023-03-04T18:20:55;10.95;;;4.72;;
34836;SDS011;21053;50.848;4.652;2023-03-04T18:23:24;28.08;;;5.97;;
34836;SDS011;21053;50.848;4.652;2023-03-04T18:25:51;12.95;;;6.07;;
34836;SDS011;21053;50.848;4.652;2023-03-04T18:28:17;14.10;;;6.75;;
34836;SDS011;21053;50.848;4.652;2023-03-04T18:30:45;13.10;;;5.10;;
34836;SDS011;21053;50.848;4.652;2023-03-04T18:33:11;11.63;;;5.15;;
34836;SDS011;21053;50.848;4.652;2023-03-04T18:35:36;11.00;;;6.13;;
34836;SDS011;21053;50.848;4.652;2023-03-04T18:38:03;11.43;;;5.28;;
34836;SDS011;21053;50.848;4.652;2023-03-04T18:42:58;13.20;;;5.25;;
34836;SDS011;21053;50.848;4.652;2023-03-04T18:45:25;15.00;;;5.45;;
34836;SDS011;21053;50.848;4.652;2023-03-04T18:48:51;13.13;;;5.90;;
34836;SDS011;21053;50.848;4.652;2023-03-04T18:51:20;14.50;;;4.82;;
34836;SDS011;21053;50.848;4.652;2023-03-04T18:53:49;13.20;;;5.60;;
34836;SDS011;21053;50.848;4.652;2023-03-04T18:56:17;16.55;;;5.47;;
34836;SDS011;21053;50.848;4.652;2023-03-04T19:01:21;15.27;;;6.60;;
34836;SDS011;21053;50.848;4.652;2023-03-04T19:03:53;14.48;;;7.30;;
34836;SDS011;21053;50.848;4.652;2023-03-04T19:06:33;16.42;;;7.22;;
34836;SDS011;21053;50.848;4.652;2023-03-04T19:11:30;22.40;;;6.85;;
34836;SDS011;21053;50.848;4.652;2023-03-04T19:14:01;18.70;;;6.35;;
34836;SDS011;21053;50.848;4.652;2023-03-04T19:16:27;16.67;;;5.28;;
34836;SDS011;21053;50.848;4.652;2023-03-04T19:18:54;18.80;;;5.72;;
34836;SDS011;21053;50.848;4.652;2023-03-04T19:21:23;17.15;;;5.63;;